Time;durP1;ratioP1;P1;durP2;ratioP2;P2;SDS_P1;SDS_P2;PMS_P1;PMS_P2;Temp;Humidity;BMP_temperature;BMP_pressure;BME280_temperature;BME280_humidity;BME280_pressure;Samples;Min_cycle;Max_cycle;Signal;HPM_P1;HPM_P2
2023/06/10 00:01:02;;;;;;;1.30;1.10;;;;;;;;;;4984919;28;58268;-63
2023/06/10 00:03:27;;;;;;;1.00;0.90;;;;;;;;;;4985821;28;58392;-64
2023/06/10 00:05:52;;;;;;;0.77;0.77;;;;;;;;;;4984292;28;58346;-63
2023/06/10 00:08:19;;;;;;;0.88;0.88;;;;;;;;;;4988576;28;59482;-64
2023/06/10 00:10:44;;;;;;;0.68;0.60;;;;;;;;;;4989286;28;58358;-63
2023/06/10 00:13:11;;;;;;;1.10;1.00;;;;;;;;;;4986782;28;59127;-63
2023/06/10 00:15:36;;;;;;;1.05;1.00;;;;;;;;;;4987044;28;58311;-63
2023/06/10 00:18:02;;;;;;;1.02;0.93;;;;;;;;;;4983772;28;58881;-63
2023/06/10 00:20:27;;;;;;;0.80;0.80;;;;;;;;;;4988601;28;59040;-60
2023/06/10 00:22:52;;;;;;;2.22;1.30;;;;;;;;;;4988570;28;58404;-63
2023/06/10 00:25:18;;;;;;;0.93;0.60;;;;;;;;;;4988788;28;58417;-63
2023/06/10 00:27:43;;;;;;;1.42;0.98;;;;;;;;;;4983508;28;58912;-63
2023/06/10 00:30:09;;;;;;;1.37;1.00;;;;;;;;;;4989506;28;58703;-63
2023/06/10 00:32:35;;;;;;;1.60;1.20;;;;;;;;;;4989517;28;58959;-63
2023/06/10 00:35:00;;;;;;;0.90;0.90;;;;;;;;;;4983097;28;58284;-61
2023/06/10 00:37:25;;;;;;;1.30;1.20;;;;;;;;;;4989810;28;58963;-60
2023/06/10 00:39:51;;;;;;;1.67;0.75;;;;;;;;;;4989466;28;58694;-62
2023/06/10 00:42:16;;;;;;;1.10;1.00;;;;;;;;;;4991362;28;58543;-64
2023/06/10 00:44:41;;;;;;;1.20;1.10;;;;;;;;;;4990676;28;58609;-63
2023/06/10 00:47:07;;;;;;;1.13;1.00;;;;;;;;;;4992384;28;58833;-62
2023/06/10 00:49:32;;;;;;;0.95;0.82;;;;;;;;;;4987803;28;58766;-63
2023/06/10 00:52:02;;;;;;;1.20;1.10;;;;;;;;;;4991096;28;58676;-63
2023/06/10 00:54:27;;;;;;;1.27;1.17;;;;;;;;;;4990363;28;58616;-63
2023/06/10 00:56:52;;;;;;;2.30;0.93;;;;;;;;;;4990157;28;58437;-63
2023/06/10 00:59:18;;;;;;;1.10;1.00;;;;;;;;;;4988955;28;58645;-64
2023/06/10 01:01:46;;;;;;;1.90;1.33;;;;;;;;;;4990253;28;58692;-63
2023/06/10 01:04:12;;;;;;;1.33;1.23;;;;;;;;;;4989468;28;58778;-60
2023/06/10 01:06:47;;;;;;;1.17;1.08;;;;;;;;;;4990624;28;59213;-64
2023/06/10 01:09:19;;;;;;;0.80;0.80;;;;;;;;;;4984164;28;58602;-63
2023/06/10 01:11:47;;;;;;;0.70;0.70;;;;;;;;;;4989875;28;58311;-63
2023/06/10 01:14:14;;;;;;;0.80;0.80;;;;;;;;;;4989440;28;58678;-63
2023/06/10 01:16:40;;;;;;;1.55;1.15;;;;;;;;;;4990527;28;58728;-63
2023/06/10 01:19:06;;;;;;;0.98;0.82;;;;;;;;;;4989959;28;58405;-63
2023/06/10 01:21:32;;;;;;;0.93;0.93;;;;;;;;;;4986983;28;58622;-63
2023/06/10 01:23:57;;;;;;;0.90;0.90;;;;;;;;;;4990836;28;58745;-63
2023/06/10 01:26:27;;;;;;;1.05;1.02;;;;;;;;;;4987287;28;58942;-63
2023/06/10 01:28:57;;;;;;;0.80;0.75;;;;;;;;;;4987207;28;59024;-63
2023/06/10 01:31:36;;;;;;;0.90;0.90;;;;;;;;;;4985925;28;60197;-63
2023/06/10 01:34:04;;;;;;;0.95;0.95;;;;;;;;;;4986350;28;58952;-63
2023/06/10 01:36:31;;;;;;;1.33;1.23;;;;;;;;;;4987952;28;58468;-63
2023/06/10 01:38:57;;;;;;;0.80;0.80;;;;;;;;;;4989038;28;58452;-61
2023/06/10 01:41:22;;;;;;;1.60;1.20;;;;;;;;;;4984126;28;58476;-63
2023/06/10 01:43:48;;;;;;;0.98;0.90;;;;;;;;;;4989623;28;58826;-62
2023/06/10 01:46:13;;;;;;;0.80;0.80;;;;;;;;;;4990725;28;58702;-63
2023/06/10 01:48:39;;;;;;;0.85;0.80;;;;;;;;;;4990096;28;58793;-63
2023/06/10 01:51:04;;;;;;;0.87;0.70;;;;;;;;;;4989414;28;58330;-63
2023/06/10 01:53:30;;;;;;;1.05;0.88;;;;;;;;;;4986078;28;58385;-64
2023/06/10 01:55:55;;;;;;;1.08;1.08;;;;;;;;;;4990766;28;58664;-63
2023/06/10 01:58:20;;;;;;;0.80;0.80;;;;;;;;;;4990676;28;58202;-61
2023/06/10 02:00:45;;;;;;;1.20;1.10;;;;;;;;;;4989740;28;58777;-63
2023/06/10 02:03:10;;;;;;;1.07;0.83;;;;;;;;;;4987881;28;58822;-62
2023/06/10 02:05:36;;;;;;;2.08;1.10;;;;;;;;;;4990194;28;58354;-63
2023/06/10 02:08:01;;;;;;;0.70;0.70;;;;;;;;;;4989462;28;58859;-63
2023/06/10 02:10:26;;;;;;;1.20;1.10;;;;;;;;;;4990939;28;58348;-63
2023/06/10 02:12:51;;;;;;;0.80;0.80;;;;;;;;;;4987818;28;58682;-62
2023/06/10 02:15:16;;;;;;;1.13;1.02;;;;;;;;;;4989697;28;58412;-64
2023/06/10 02:17:41;;;;;;;1.13;1.03;;;;;;;;;;4990273;28;59372;-63
2023/06/10 02:20:08;;;;;;;0.87;0.87;;;;;;;;;;4989025;28;58323;-62
2023/06/10 02:22:34;;;;;;;0.98;0.98;;;;;;;;;;4990118;28;58707;-63
2023/06/10 02:24:59;;;;;;;0.50;0.50;;;;;;;;;;4985071;28;58533;-63
2023/06/10 02:27:24;;;;;;;1.70;0.73;;;;;;;;;;4988303;28;58432;-63
2023/06/10 02:29:49;;;;;;;0.83;0.83;;;;;;;;;;4990308;28;58134;-63
2023/06/10 02:32:14;;;;;;;0.83;0.83;;;;;;;;;;4990012;28;58388;-63
2023/06/10 02:34:40;;;;;;;1.02;0.90;;;;;;;;;;4983861;28;58526;-63
2023/06/10 02:37:05;;;;;;;0.90;0.90;;;;;;;;;;4989013;28;58893;-64
2023/06/10 02:39:30;;;;;;;1.40;1.17;;;;;;;;;;4989359;28;58401;-63
2023/06/10 02:41:55;;;;;;;1.00;0.90;;;;;;;;;;4989510;28;58672;-62
2023/06/10 02:44:21;;;;;;;1.27;0.97;;;;;;;;;;4987436;28;58408;-63
2023/06/10 02:46:46;;;;;;;1.15;1.08;;;;;;;;;;4988392;28;58747;-63
2023/06/10 02:49:11;;;;;;;0.80;0.70;;;;;;;;;;4989558;28;58394;-63
2023/06/10 02:51:36;;;;;;;1.20;1.10;;;;;;;;;;4989364;28;59040;-62
2023/06/10 02:54:02;;;;;;;1.05;0.90;;;;;;;;;;4989362;28;58433;-64
2023/06/10 02:56:27;;;;;;;1.10;1.00;;;;;;;;;;4985799;28;58507;-63
2023/06/10 02:58:52;;;;;;;0.70;0.70;;;;;;;;;;4987314;28;58603;-61
2023/06/10 03:01:18;;;;;;;0.70;0.70;;;;;;;;;;4988830;28;58150;-63
2023/06/10 03:03:43;;;;;;;1.02;0.70;;;;;;;;;;4989936;28;58462;-63
2023/06/10 03:06:12;;;;;;;1.05;1.02;;;;;;;;;;4985347;28;58513;-61
2023/06/10 03:08:37;;;;;;;1.02;0.90;;;;;;;;;;4989683;28;58199;-63
2023/06/10 03:11:03;;;;;;;0.88;0.73;;;;;;;;;;4989843;28;59061;-63
2023/06/10 03:13:28;;;;;;;1.07;1.00;;;;;;;;;;4988811;28;58891;-64
2023/06/10 03:15:53;;;;;;;0.70;0.70;;;;;;;;;;4990452;28;58433;-63
2023/06/10 03:18:18;;;;;;;0.77;0.77;;;;;;;;;;4984342;28;58756;-64
2023/06/10 03:20:44;;;;;;;0.90;0.90;;;;;;;;;;4989131;28;58343;-63
2023/06/10 03:23:09;;;;;;;0.65;0.65;;;;;;;;;;4987829;28;58415;-63
2023/06/10 03:25:34;;;;;;;1.13;0.80;;;;;;;;;;4987204;28;58749;-61
2023/06/10 03:27:59;;;;;;;1.10;1.00;;;;;;;;;;4980498;28;58504;-60
2023/06/10 03:30:25;;;;;;;0.97;0.97;;;;;;;;;;4987439;28;60499;-63
2023/06/10 03:32:50;;;;;;;0.60;0.60;;;;;;;;;;4987110;28;58374;-64
2023/06/10 03:35:15;;;;;;;1.05;1.00;;;;;;;;;;4988302;28;58676;-63
2023/06/10 03:37:40;;;;;;;1.45;1.00;;;;;;;;;;4984284;28;58531;-62
2023/06/10 03:40:06;;;;;;;0.73;0.73;;;;;;;;;;4986475;28;58457;-63
2023/06/10 03:42:31;;;;;;;0.60;0.60;;;;;;;;;;4986305;28;59063;-62
2023/06/10 03:44:56;;;;;;;2.70;0.90;;;;;;;;;;4986888;28;58725;-63
2023/06/10 03:47:21;;;;;;;0.90;0.73;;;;;;;;;;4987486;28;58759;-64
2023/06/10 03:49:46;;;;;;;1.27;0.90;;;;;;;;;;4984343;28;58869;-60
2023/06/10 03:52:12;;;;;;;2.27;1.00;;;;;;;;;;4986392;28;58608;-63
2023/06/10 03:54:37;;;;;;;1.40;0.75;;;;;;;;;;4987503;28;58903;-63
2023/06/10 03:57:03;;;;;;;1.20;1.10;;;;;;;;;;4986166;28;58918;-63
2023/06/10 03:59:28;;;;;;;1.10;1.00;;;;;;;;;;4982734;28;58500;-63
2023/06/10 04:01:53;;;;;;;1.27;1.00;;;;;;;;;;4983637;28;58912;-63
2023/06/10 04:04:19;;;;;;;0.53;0.53;;;;;;;;;;4985336;28;58486;-63
2023/06/10 04:06:44;;;;;;;0.93;0.60;;;;;;;;;;4987626;28;58780;-63
2023/06/10 04:09:09;;;;;;;0.70;0.70;;;;;;;;;;4981589;28;59095;-64
2023/06/10 04:11:35;;;;;;;0.70;0.70;;;;;;;;;;4983902;28;58595;-61
2023/06/10 04:14:00;;;;;;;0.60;0.60;;;;;;;;;;4984869;28;58876;-63
2023/06/10 04:16:25;;;;;;;1.03;0.93;;;;;;;;;;4987209;28;58601;-63
2023/06/10 04:18:50;;;;;;;0.80;0.75;;;;;;;;;;4985561;28;58747;-63
2023/06/10 04:21:15;;;;;;;0.57;0.57;;;;;;;;;;4982686;28;58177;-63
2023/06/10 04:23:40;;;;;;;1.10;1.00;;;;;;;;;;4985856;28;58587;-58
2023/06/10 04:26:06;;;;;;;0.80;0.80;;;;;;;;;;4988285;28;58396;-60
2023/06/10 04:28:31;;;;;;;0.95;0.77;;;;;;;;;;4985427;28;59278;-62
2023/06/10 04:30:56;;;;;;;0.90;0.90;;;;;;;;;;4981590;28;59672;-63
2023/06/10 04:33:21;;;;;;;3.53;0.98;;;;;;;;;;4985821;28;58613;-63
2023/06/10 04:35:47;;;;;;;0.77;0.77;;;;;;;;;;4986367;28;58776;-64
2023/06/10 04:38:13;;;;;;;0.85;0.68;;;;;;;;;;4986529;28;59555;-63
2023/06/10 04:40:38;;;;;;;0.88;0.88;;;;;;;;;;4985873;28;58461;-62
2023/06/10 04:43:03;;;;;;;0.73;0.73;;;;;;;;;;4984108;28;58844;-63
2023/06/10 04:45:29;;;;;;;0.90;0.90;;;;;;;;;;4986875;28;58716;-62
2023/06/10 04:47:55;;;;;;;1.10;0.88;;;;;;;;;;4986992;28;59988;-63
2023/06/10 04:50:21;;;;;;;0.80;0.80;;;;;;;;;;4986318;28;58739;-62
2023/06/10 04:52:46;;;;;;;1.07;0.93;;;;;;;;;;4987346;28;58524;-60
2023/06/10 04:55:11;;;;;;;1.02;0.93;;;;;;;;;;4989643;28;58987;-63
2023/06/10 04:57:36;;;;;;;1.27;1.17;;;;;;;;;;4987262;28;58437;-62
2023/06/10 05:00:05;;;;;;;0.90;0.90;;;;;;;;;;4988018;28;58425;-64
2023/06/10 05:02:30;;;;;;;0.88;0.77;;;;;;;;;;4986129;28;58970;-64
2023/06/10 05:04:57;;;;;;;1.92;0.73;;;;;;;;;;4990405;28;58682;-63
2023/06/10 05:07:22;;;;;;;0.70;0.70;;;;;;;;;;4989437;28;59884;-60
2023/06/10 05:09:48;;;;;;;1.23;1.13;;;;;;;;;;4989868;28;58772;-63
2023/06/10 05:12:13;;;;;;;0.70;0.68;;;;;;;;;;4987718;28;58563;-63
2023/06/10 05:14:38;;;;;;;0.85;0.80;;;;;;;;;;4987611;28;58599;-60
2023/06/10 05:17:05;;;;;;;0.98;0.80;;;;;;;;;;4989226;28;58883;-63
2023/06/10 05:19:30;;;;;;;0.65;0.57;;;;;;;;;;4989522;28;58445;-63
2023/06/10 05:21:55;;;;;;;0.80;0.80;;;;;;;;;;4990782;28;58339;-63
2023/06/10 05:24:21;;;;;;;0.57;0.57;;;;;;;;;;4986148;28;58742;-62
2023/06/10 05:26:47;;;;;;;0.73;0.70;;;;;;;;;;4989005;28;58457;-60
2023/06/10 05:29:12;;;;;;;0.68;0.68;;;;;;;;;;4987834;28;58935;-63
2023/06/10 05:31:37;;;;;;;0.70;0.70;;;;;;;;;;4990473;28;58347;-63
2023/06/10 05:34:02;;;;;;;0.70;0.70;;;;;;;;;;4986068;28;58311;-64
2023/06/10 05:36:28;;;;;;;0.52;0.52;;;;;;;;;;4986940;28;58773;-63
2023/06/10 05:38:53;;;;;;;0.93;0.93;;;;;;;;;;4988385;28;58224;-63
2023/06/10 05:41:18;;;;;;;1.00;0.90;;;;;;;;;;4988491;28;58924;-59
2023/06/10 05:43:43;;;;;;;0.98;0.70;;;;;;;;;;4988697;28;58943;-63
2023/06/10 05:46:08;;;;;;;0.83;0.70;;;;;;;;;;4986562;28;58334;-61
2023/06/10 05:48:33;;;;;;;0.80;0.80;;;;;;;;;;4987774;28;58719;-63
2023/06/10 05:50:59;;;;;;;0.53;0.53;;;;;;;;;;4988609;28;58600;-63
2023/06/10 05:53:24;;;;;;;0.82;0.68;;;;;;;;;;4990088;28;58779;-63
2023/06/10 05:55:49;;;;;;;0.80;0.70;;;;;;;;;;4985232;28;58590;-63
2023/06/10 05:58:14;;;;;;;0.80;0.80;;;;;;;;;;4989917;28;58695;-63
2023/06/10 06:00:40;;;;;;;0.70;0.70;;;;;;;;;;4987354;28;58532;-61
2023/06/10 06:03:08;;;;;;;0.73;0.60;;;;;;;;;;4985927;28;58428;-63
2023/06/10 06:05:35;;;;;;;0.82;0.75;;;;;;;;;;4986789;28;58757;-63
2023/06/10 06:08:01;;;;;;;0.60;0.60;;;;;;;;;;4987937;28;59265;-63
2023/06/10 06:10:26;;;;;;;0.95;0.82;;;;;;;;;;4988012;28;58205;-62
2023/06/10 06:12:51;;;;;;;0.75;0.68;;;;;;;;;;4989821;28;58243;-63
2023/06/10 06:15:16;;;;;;;0.82;0.82;;;;;;;;;;4987567;28;58769;-63
2023/06/10 06:17:41;;;;;;;0.77;0.77;;;;;;;;;;4986098;28;59006;-63
2023/06/10 06:20:07;;;;;;;1.30;1.20;;;;;;;;;;4988508;28;58813;-61
2023/06/10 06:22:32;;;;;;;0.82;0.80;;;;;;;;;;4987666;28;58632;-64
2023/06/10 06:24:57;;;;;;;0.60;0.47;;;;;;;;;;4991486;28;58449;-57
2023/06/10 06:27:22;;;;;;;0.60;0.60;;;;;;;;;;4981819;28;59634;-62
2023/06/10 06:29:47;;;;;;;1.52;0.93;;;;;;;;;;4986606;28;57934;-63
2023/06/10 06:32:13;;;;;;;2.15;1.63;;;;;;;;;;4987669;28;58469;-62
2023/06/10 06:34:38;;;;;;;2.53;1.63;;;;;;;;;;4987127;28;60568;-63
2023/06/10 06:37:03;;;;;;;3.35;1.70;;;;;;;;;;4986369;28;58837;-63
2023/06/10 06:39:28;;;;;;;3.87;2.13;;;;;;;;;;4988547;28;59000;-63
2023/06/10 06:41:53;;;;;;;4.07;2.40;;;;;;;;;;4985424;28;58463;-61
2023/06/10 06:44:18;;;;;;;2.90;1.70;;;;;;;;;;4986025;28;58382;-61
2023/06/10 06:46:44;;;;;;;3.10;1.77;;;;;;;;;;4986515;28;58822;-63
2023/06/10 06:49:09;;;;;;;4.43;1.55;;;;;;;;;;4984194;28;58928;-63
2023/06/10 06:51:35;;;;;;;2.07;1.30;;;;;;;;;;4988325;28;58696;-63
2023/06/10 06:54:00;;;;;;;2.80;1.63;;;;;;;;;;4986469;28;59027;-61
2023/06/10 06:56:27;;;;;;;5.57;2.43;;;;;;;;;;4988643;28;58406;-63
2023/06/10 06:58:52;;;;;;;5.65;2.60;;;;;;;;;;4984093;28;59106;-63
2023/06/10 07:01:17;;;;;;;4.17;2.70;;;;;;;;;;4988433;28;58514;-64
2023/06/10 07:03:42;;;;;;;6.13;2.63;;;;;;;;;;4985627;28;58513;-63
2023/06/10 07:06:07;;;;;;;1.90;1.70;;;;;;;;;;4983445;28;58797;-64
2023/06/10 07:08:32;;;;;;;2.75;2.00;;;;;;;;;;4983354;28;58635;-61
2023/06/10 07:10:58;;;;;;;3.70;2.40;;;;;;;;;;4984387;28;58392;-57
2023/06/10 07:13:23;;;;;;;6.65;1.83;;;;;;;;;;4988554;28;58836;-60
2023/06/10 07:15:48;;;;;;;3.67;2.28;;;;;;;;;;4988260;28;58422;-64
2023/06/10 07:18:14;;;;;;;4.30;2.45;;;;;;;;;;4984390;28;58794;-63
2023/06/10 07:20:41;;;;;;;4.18;2.63;;;;;;;;;;4984017;28;58960;-63
2023/06/10 07:23:06;;;;;;;2.53;2.17;;;;;;;;;;4988569;28;58598;-63
2023/06/10 07:25:31;;;;;;;5.13;2.53;;;;;;;;;;4988940;28;58462;-63
2023/06/10 07:27:56;;;;;;;5.77;3.33;;;;;;;;;;4987937;28;58962;-62
2023/06/10 07:30:21;;;;;;;3.30;2.60;;;;;;;;;;4982622;28;59031;-63
2023/06/10 07:32:46;;;;;;;2.30;2.10;;;;;;;;;;4987663;28;59236;-63
2023/06/10 07:35:12;;;;;;;5.63;2.90;;;;;;;;;;4987499;28;58891;-63
2023/06/10 07:37:37;;;;;;;5.93;2.37;;;;;;;;;;4988565;28;59163;-63
2023/06/10 07:40:02;;;;;;;3.00;2.78;;;;;;;;;;4986534;28;59296;-60
2023/06/10 07:42:28;;;;;;;2.50;2.30;;;;;;;;;;4984618;28;58370;-64
2023/06/10 07:44:53;;;;;;;6.73;2.40;;;;;;;;;;4987052;28;58437;-63
2023/06/10 07:47:18;;;;;;;2.15;1.95;;;;;;;;;;4988674;28;58502;-63
2023/06/10 07:49:43;;;;;;;4.30;1.90;;;;;;;;;;4988255;28;58717;-63
2023/06/10 07:52:08;;;;;;;2.53;1.93;;;;;;;;;;4982353;28;58756;-64
2023/06/10 07:54:33;;;;;;;2.67;2.33;;;;;;;;;;4985709;28;58885;-62
2023/06/10 07:56:58;;;;;;;2.80;2.08;;;;;;;;;;4985176;28;58395;-63
2023/06/10 07:59:26;;;;;;;4.65;2.80;;;;;;;;;;4981882;28;58723;-64
2023/06/10 08:01:51;;;;;;;2.17;1.97;;;;;;;;;;4979423;28;58494;-63
2023/06/10 08:04:16;;;;;;;3.55;2.25;;;;;;;;;;4986141;28;58626;-59
2023/06/10 08:06:41;;;;;;;1.70;1.60;;;;;;;;;;4986508;28;58864;-63
2023/06/10 08:09:06;;;;;;;4.47;1.90;;;;;;;;;;4986440;28;58582;-62
2023/06/10 08:11:32;;;;;;;2.65;2.05;;;;;;;;;;4983997;28;58438;-64
2023/06/10 08:13:57;;;;;;;2.67;1.60;;;;;;;;;;4985114;28;58474;-62
2023/06/10 08:16:22;;;;;;;3.30;2.38;;;;;;;;;;4989495;28;58894;-63
2023/06/10 08:18:47;;;;;;;4.40;1.93;;;;;;;;;;4987772;28;58482;-63
2023/06/10 08:21:12;;;;;;;6.25;2.47;;;;;;;;;;4988915;28;58635;-64
2023/06/10 08:23:37;;;;;;;4.20;2.65;;;;;;;;;;4985236;28;58634;-63
2023/06/10 08:26:02;;;;;;;3.77;1.90;;;;;;;;;;4990044;28;58833;-64
2023/06/10 08:28:28;;;;;;;3.17;2.33;;;;;;;;;;4991727;28;58664;-64
2023/06/10 08:30:53;;;;;;;2.10;1.75;;;;;;;;;;4992069;28;58369;-63
2023/06/10 08:33:18;;;;;;;2.53;2.30;;;;;;;;;;4987722;28;58832;-60
2023/06/10 08:35:43;;;;;;;4.18;2.20;;;;;;;;;;4990414;28;58393;-63
2023/06/10 08:38:08;;;;;;;2.40;2.03;;;;;;;;;;4992045;28;58362;-64
2023/06/10 08:40:34;;;;;;;2.97;2.08;;;;;;;;;;4990963;28;58755;-64
2023/06/10 08:42:59;;;;;;;2.90;2.20;;;;;;;;;;4991768;28;59458;-63
2023/06/10 08:45:25;;;;;;;3.92;1.92;;;;;;;;;;4986533;28;58803;-63
2023/06/10 08:47:52;;;;;;;6.13;2.33;;;;;;;;;;4988809;28;58244;-63
2023/06/10 08:50:18;;;;;;;2.97;2.30;;;;;;;;;;4990459;28;59181;-63
2023/06/10 08:52:44;;;;;;;3.78;1.73;;;;;;;;;;4990710;28;58290;-63
2023/06/10 08:55:29;;;;;;;2.20;2.00;;;;;;;;;;4989724;28;58717;-65
2023/06/10 08:57:54;;;;;;;2.50;2.00;;;;;;;;;;4990657;28;59727;-66
2023/06/10 09:00:19;;;;;;;6.67;2.10;;;;;;;;;;4991046;28;58756;-66
2023/06/10 09:02:45;;;;;;;9.02;2.92;;;;;;;;;;4991137;28;59923;-61
2023/06/10 09:05:10;;;;;;;2.97;2.15;;;;;;;;;;4988284;28;58708;-66
2023/06/10 09:07:36;;;;;;;3.55;2.58;;;;;;;;;;4988650;28;58417;-61
2023/06/10 09:10:06;;;;;;;4.00;1.95;;;;;;;;;;4990027;28;59076;-60
2023/06/10 09:12:32;;;;;;;3.30;2.30;;;;;;;;;;4990156;28;58497;-66
2023/06/10 09:14:57;;;;;;;4.68;1.98;;;;;;;;;;4991529;28;58687;-62
2023/06/10 09:17:23;;;;;;;2.22;1.70;;;;;;;;;;4990421;28;58649;-72
2023/06/10 09:19:48;;;;;;;3.30;1.83;;;;;;;;;;4989388;28;59050;-63
2023/06/10 09:22:14;;;;;;;2.45;2.05;;;;;;;;;;4989203;28;58579;-64
2023/06/10 09:24:40;;;;;;;2.30;1.98;;;;;;;;;;4988885;28;58713;-64
2023/06/10 09:27:06;;;;;;;4.43;1.58;;;;;;;;;;4989522;28;58517;-64
2023/06/10 09:29:32;;;;;;;2.22;1.30;;;;;;;;;;4984389;28;58774;-64
2023/06/10 09:31:58;;;;;;;2.00;1.70;;;;;;;;;;4989994;28;58567;-64
2023/06/10 09:34:25;;;;;;;1.67;1.58;;;;;;;;;;4988625;28;58505;-61
2023/06/10 09:36:50;;;;;;;3.13;2.40;;;;;;;;;;4988878;28;61060;-62
2023/06/10 09:39:16;;;;;;;2.70;2.17;;;;;;;;;;4984029;28;58927;-61
2023/06/10 09:41:42;;;;;;;4.55;2.10;;;;;;;;;;4988729;28;58363;-63
2023/06/10 09:44:18;;;;;;;3.53;2.45;;;;;;;;;;4986435;28;58496;-61
2023/06/10 09:46:49;;;;;;;2.17;1.83;;;;;;;;;;4987069;28;58449;-63
2023/06/10 09:49:15;;;;;;;2.28;1.83;;;;;;;;;;4985988;28;58367;-63
2023/06/10 09:51:53;;;;;;;2.58;2.13;;;;;;;;;;4984435;28;58475;-63
2023/06/10 09:54:19;;;;;;;5.43;1.52;;;;;;;;;;4987169;28;57903;-63
2023/06/10 09:56:46;;;;;;;1.98;1.77;;;;;;;;;;4990683;28;58421;-63
2023/06/10 09:59:11;;;;;;;2.43;1.90;;;;;;;;;;4989310;28;58178;-63
2023/06/10 10:01:36;;;;;;;1.87;1.70;;;;;;;;;;4989797;28;58457;-61
2023/06/10 10:04:03;;;;;;;2.73;2.17;;;;;;;;;;4986268;28;58456;-63
2023/06/10 10:06:29;;;;;;;4.00;2.33;;;;;;;;;;4990825;28;58912;-63
2023/06/10 10:08:54;;;;;;;2.30;1.75;;;;;;;;;;4989819;28;58306;-63
2023/06/10 10:11:23;;;;;;;3.05;2.20;;;;;;;;;;4989734;28;58414;-63
2023/06/10 10:13:49;;;;;;;4.35;2.30;;;;;;;;;;4990523;28;58931;-63
2023/06/10 10:16:17;;;;;;;3.47;1.77;;;;;;;;;;4990069;28;58918;-61
2023/06/10 10:18:43;;;;;;;2.03;1.50;;;;;;;;;;4989391;28;59289;-63
2023/06/10 10:21:11;;;;;;;4.35;2.45;;;;;;;;;;4985242;28;58396;-64
2023/06/10 10:23:43;;;;;;;5.78;2.10;;;;;;;;;;4990560;28;58925;-63
2023/06/10 10:26:10;;;;;;;5.13;2.42;;;;;;;;;;4989623;28;58418;-64
2023/06/10 10:28:41;;;;;;;2.42;1.60;;;;;;;;;;4985347;28;58615;-62
2023/06/10 10:31:10;;;;;;;2.90;2.03;;;;;;;;;;4983633;28;58535;-63
2023/06/10 10:33:40;;;;;;;4.85;2.30;;;;;;;;;;4989045;28;58645;-63
2023/06/10 10:36:07;;;;;;;3.10;1.42;;;;;;;;;;4986286;28;58458;-63
2023/06/10 10:38:32;;;;;;;3.45;2.13;;;;;;;;;;4989607;28;58462;-63
2023/06/10 10:40:59;;;;;;;3.57;2.10;;;;;;;;;;4987725;28;58564;-63
2023/06/10 10:43:25;;;;;;;3.75;2.45;;;;;;;;;;4987182;28;58885;-60
2023/06/10 10:45:58;;;;;;;4.97;2.53;;;;;;;;;;4989419;28;58759;-63
2023/06/10 10:48:23;;;;;;;4.47;2.60;;;;;;;;;;4988698;28;58385;-61
2023/06/10 10:50:55;;;;;;;3.40;2.13;;;;;;;;;;4989214;28;58133;-58
2023/06/10 10:53:20;;;;;;;2.75;2.05;;;;;;;;;;4989742;28;58175;-63
2023/06/10 10:55:57;;;;;;;6.20;2.28;;;;;;;;;;4990157;28;58912;-61
2023/06/10 10:58:24;;;;;;;4.25;1.88;;;;;;;;;;4989166;28;58694;-62
2023/06/10 11:00:49;;;;;;;4.20;2.42;;;;;;;;;;4989130;28;58478;-64
2023/06/10 11:03:18;;;;;;;4.90;2.20;;;;;;;;;;4988738;28;58283;-61
2023/06/10 11:05:50;;;;;;;3.38;2.10;;;;;;;;;;4988971;28;58822;-65
2023/06/10 11:08:35;;;;;;;6.03;2.50;;;;;;;;;;4989061;28;58267;-63
2023/06/10 11:11:00;;;;;;;7.47;2.03;;;;;;;;;;4989658;28;58891;-64
2023/06/10 11:13:27;;;;;;;4.95;1.77;;;;;;;;;;4989725;28;58589;-64
2023/06/10 11:15:56;;;;;;;3.42;2.78;;;;;;;;;;4989781;28;58391;-63
2023/06/10 11:18:24;;;;;;;3.42;2.15;;;;;;;;;;4988811;28;59577;-63
2023/06/10 11:20:49;;;;;;;;;;;;;;;;;;4985590;28;58846;-63
2023/06/10 11:23:27;;;;;;;4.03;3.00;;;;;;;;;;4989074;28;58432;-62
2023/06/10 11:26:11;;;;;;;3.33;1.90;;;;;;;;;;4989013;28;58643;-63
2023/06/10 11:28:37;;;;;;;2.42;1.67;;;;;;;;;;4987687;28;58744;-63
2023/06/10 11:31:02;;;;;;;3.13;1.83;;;;;;;;;;4985289;28;58852;-63
2023/06/10 11:33:27;;;;;;;2.83;2.10;;;;;;;;;;4988634;28;57894;-63
2023/06/10 11:35:52;;;;;;;2.42;1.85;;;;;;;;;;4989372;28;58727;-64
2023/06/10 11:38:18;;;;;;;1.90;1.80;;;;;;;;;;4988761;28;58309;-64
2023/06/10 11:40:50;;;;;;;2.30;2.10;;;;;;;;;;4989732;28;58062;-63
2023/06/10 11:43:16;;;;;;;1.58;1.45;;;;;;;;;;4983255;28;58664;-63
2023/06/10 11:45:41;;;;;;;2.42;1.63;;;;;;;;;;4988786;28;58366;-64
2023/06/10 11:48:07;;;;;;;4.27;1.63;;;;;;;;;;4989430;28;58501;-64
2023/06/10 11:50:32;;;;;;;3.37;1.53;;;;;;;;;;4989267;28;58199;-63
2023/06/10 11:52:58;;;;;;;3.00;2.10;;;;;;;;;;4985394;28;58525;-63
2023/06/10 11:55:23;;;;;;;3.72;2.25;;;;;;;;;;4987806;28;58937;-63
2023/06/10 11:57:57;;;;;;;2.67;1.67;;;;;;;;;;4988680;28;58459;-62
2023/06/10 12:00:22;;;;;;;1.80;1.67;;;;;;;;;;4990263;28;58472;-62
2023/06/10 12:02:54;;;;;;;2.70;1.73;;;;;;;;;;4986967;28;57836;-63
2023/06/10 12:05:19;;;;;;;4.47;1.85;;;;;;;;;;4984728;28;58367;-63
2023/06/10 12:07:44;;;;;;;2.93;1.60;;;;;;;;;;4991623;28;58513;-63
2023/06/10 12:10:09;;;;;;;1.65;1.42;;;;;;;;;;4991608;28;58772;-63
2023/06/10 12:12:36;;;;;;;3.23;1.50;;;;;;;;;;4989243;28;58594;-60
2023/06/10 12:15:04;;;;;;;3.42;1.50;;;;;;;;;;4988804;28;57872;-65
2023/06/10 12:17:29;;;;;;;2.65;1.95;;;;;;;;;;4991856;28;58750;-64
2023/06/10 12:19:55;;;;;;;1.80;1.70;;;;;;;;;;4992719;28;58131;-64
2023/06/10 12:22:20;;;;;;;1.57;1.47;;;;;;;;;;4991366;28;58439;-65
2023/06/10 12:24:56;;;;;;;1.77;1.50;;;;;;;;;;4989148;28;57776;-65
2023/06/10 12:27:22;;;;;;;1.27;1.17;;;;;;;;;;4989814;28;58367;-63
2023/06/10 12:29:51;;;;;;;1.45;1.35;;;;;;;;;;4987532;28;59060;-64
2023/06/10 12:32:16;;;;;;;2.30;1.23;;;;;;;;;;4991088;28;59436;-64
2023/06/10 12:34:42;;;;;;;3.40;1.37;;;;;;;;;;4990890;28;58081;-66
2023/06/10 12:37:13;;;;;;;4.32;2.38;;;;;;;;;;4989247;28;58370;-64
2023/06/10 12:39:39;;;;;;;2.33;1.63;;;;;;;;;;4988423;28;58366;-65
2023/06/10 12:42:04;;;;;;;2.47;1.13;;;;;;;;;;4991275;28;58988;-65
2023/06/10 12:44:33;;;;;;;4.23;1.67;;;;;;;;;;4987705;28;58557;-65
2023/06/10 12:46:58;;;;;;;2.25;1.45;;;;;;;;;;4989507;28;59244;-66
2023/06/10 12:49:23;;;;;;;4.37;1.77;;;;;;;;;;4990656;28;58595;-66
2023/06/10 12:51:48;;;;;;;1.90;1.60;;;;;;;;;;4986407;28;58481;-66
2023/06/10 12:54:14;;;;;;;1.60;1.20;;;;;;;;;;4989483;28;58220;-66
2023/06/10 12:56:39;;;;;;;2.38;1.42;;;;;;;;;;4991781;28;58871;-65
2023/06/10 12:59:04;;;;;;;7.87;2.97;;;;;;;;;;4989293;28;58397;-65
2023/06/10 13:01:31;;;;;;;3.83;1.20;;;;;;;;;;4984919;28;58291;-66
2023/06/10 13:03:56;;;;;;;6.85;1.30;;;;;;;;;;4985737;28;58153;-65
2023/06/10 13:06:21;;;;;;;4.77;1.90;;;;;;;;;;4988282;28;57819;-66
2023/06/10 13:08:47;;;;;;;4.22;2.03;;;;;;;;;;4987075;28;58235;-64
2023/06/10 13:11:12;;;;;;;3.95;1.48;;;;;;;;;;4985464;28;58398;-63
2023/06/10 13:13:37;;;;;;;4.35;1.95;;;;;;;;;;4985806;28;57912;-64
2023/06/10 13:16:02;;;;;;;1.83;1.33;;;;;;;;;;4986069;28;58382;-64
2023/06/10 13:18:27;;;;;;;3.57;1.40;;;;;;;;;;4990414;28;58424;-64
2023/06/10 13:20:52;;;;;;;1.92;1.58;;;;;;;;;;4986453;28;58370;-64
2023/06/10 13:23:18;;;;;;;3.65;1.65;;;;;;;;;;4988081;28;58357;-63
2023/06/10 13:25:44;;;;;;;5.45;1.98;;;;;;;;;;4989122;28;58432;-69
2023/06/10 13:28:09;;;;;;;1.77;1.42;;;;;;;;;;4989643;28;60353;-70
2023/06/10 13:30:34;;;;;;;2.50;1.07;;;;;;;;;;4990288;28;57712;-66
2023/06/10 13:33:00;;;;;;;4.23;2.27;;;;;;;;;;4990126;28;58634;-63
2023/06/10 13:35:25;;;;;;;2.22;1.65;;;;;;;;;;4986006;28;57981;-68
2023/06/10 13:37:50;;;;;;;2.70;1.48;;;;;;;;;;4987167;28;58727;-67
2023/06/10 13:40:15;;;;;;;4.68;1.80;;;;;;;;;;4987208;28;58571;-64
2023/06/10 13:42:41;;;;;;;3.43;1.80;;;;;;;;;;4986720;28;58330;-68
2023/06/10 13:45:06;;;;;;;4.13;1.50;;;;;;;;;;4980284;28;58068;-69
2023/06/10 13:47:31;;;;;;;2.30;1.08;;;;;;;;;;4986109;28;59107;-68
2023/06/10 13:49:57;;;;;;;2.95;1.60;;;;;;;;;;4985696;28;58430;-69
2023/06/10 13:52:22;;;;;;;5.00;1.70;;;;;;;;;;4988469;28;58361;-68
2023/06/10 13:54:47;;;;;;;3.13;1.30;;;;;;;;;;4984581;28;58405;-67
2023/06/10 13:57:12;;;;;;;4.80;1.33;;;;;;;;;;4983461;28;58238;-65
2023/06/10 13:59:37;;;;;;;3.70;1.70;;;;;;;;;;4989062;28;58701;-70
2023/06/10 14:02:03;;;;;;;1.40;1.10;;;;;;;;;;4985434;28;58957;-66
2023/06/10 14:04:28;;;;;;;2.10;1.13;;;;;;;;;;4988745;28;58611;-69
2023/06/10 14:06:53;;;;;;;2.70;1.17;;;;;;;;;;4984559;28;58398;-68
2023/06/10 14:09:19;;;;;;;7.13;1.60;;;;;;;;;;4989657;28;57797;-69
2023/06/10 14:11:44;;;;;;;1.60;1.20;;;;;;;;;;4988946;28;58394;-68
2023/06/10 14:14:10;;;;;;;3.40;1.27;;;;;;;;;;4989897;28;58677;-68
2023/06/10 14:16:35;;;;;;;2.08;1.23;;;;;;;;;;4986006;28;58658;-68
2023/06/10 14:19:00;;;;;;;1.73;1.10;;;;;;;;;;4986584;28;58442;-64
2023/06/10 14:21:25;;;;;;;1.92;1.63;;;;;;;;;;4983009;28;59947;-68
2023/06/10 14:23:52;;;;;;;4.00;1.63;;;;;;;;;;4985921;28;58592;-66
2023/06/10 14:26:17;;;;;;;4.32;2.08;;;;;;;;;;4986829;28;59154;-65
2023/06/10 14:28:42;;;;;;;2.23;1.57;;;;;;;;;;4984518;28;58605;-66
2023/06/10 14:31:08;;;;;;;6.20;1.38;;;;;;;;;;4987640;28;58480;-69
2023/06/10 14:33:33;;;;;;;9.93;1.95;;;;;;;;;;4990022;28;58421;-64
2023/06/10 14:35:58;;;;;;;4.38;1.38;;;;;;;;;;4989555;28;58870;-64